Neder Vindinge, Denmark
Current Conditions -  °F | °C
As of 4:50 AM on Thursday 23 Oct 2014 (Local Time) from EKRK Reporting Station
Broken Clouds Broken Clouds  
Wind Chill: 52°   Ceiling: 1100
Heat Index: 52°   Visibility: 6mi
Dew Point: 50°   Wind: 9mph
Humidity: 94%   Direction: 100°E
Pressure: 30.03"   Gusts: NA
Location:  55.03°N, 11.88°E
Report Text: EKRK 230250Z AUTO 10008KT 9999NDV FEW007/// BKN011///BKN018/// 11/10 Q1017
Loading
Personal Weather Stations






























Interactive Weather Map
Tropical Storm Tracking
New forecast layout! Learn more

10-Day Weather Forecast

Advertisements
Track Severe Weather on mobile